11:42
Airports
Links
Donate
Help keep this website running!
PayPal
Bitcoin
METAR
LFPG 201130Z 23006KT 190V290 9999 SCT045 21/08 Q1026 NOSIG
Current Weather Conditions at LFPG
VFR 11:30:00 20-08-17
Altimeter:30.30 hg
Temp:21.0°c 70°f
Dew point:8.0°c 46°f
Wind:6 knots, 6.9 mph, 3 m/s, from 230°
Visibility:6.21 statute miles
4500(SCT) Scattered
No significant weather changes expected within 2 hours.
Past METAR reports
VFR 11:00:00 20-08-17
Altimeter:30.30 hg
Temp:19.0°c 66°f
Dew point:8.0°c 46°f
Wind:5 knots, 5.8 mph, 3 m/s, from 290°
Visibility:6.21 statute miles
4500(SCT) Scattered
No significant weather changes expected within 2 hours.
LFPG 201100Z 29005KT 230V340 9999 SCT045 19/08 Q1026 NOSIG
VFR 10:30:00 20-08-17
Altimeter:30.30 hg
Temp:19.0°c 66°f
Dew point:9.0°c 48°f
Wind:5 knots, 5.8 mph, 3 m/s, from 220°
Visibility:6.21 statute miles
3700(SCT) Scattered
No significant weather changes expected within 2 hours.
LFPG 201030Z 22005KT 190V260 9999 SCT037 19/09 Q1026 NOSIG
VFR 10:00:00 20-08-17
Altimeter:30.30 hg
Temp:18.0°c 64°f
Dew point:10.0°c 50°f
Wind:6 knots, 6.9 mph, 3 m/s, from 270°
Visibility:6.21 statute miles
3300(SCT) Scattered
No significant weather changes expected within 2 hours.
LFPG 201000Z 27006KT 230V330 9999 SCT033 18/10 Q1026 NOSIG
VFR 09:30:00 20-08-17
Altimeter:30.30 hg
Temp:18.0°c 64°f
Dew point:9.0°c 48°f
Wind:6 knots, 6.9 mph, 3 m/s, from 270°
Visibility:6.21 statute miles
2200(SCT) Scattered
No significant weather changes expected within 2 hours.
LFPG 200930Z 27006KT 220V300 9999 SCT022 18/09 Q1026 NOSIG
VFR 09:00:00 20-08-17
Altimeter:30.30 hg
Temp:17.0°c 63°f
Dew point:11.0°c 52°f
Wind:4 knots, 4.6 mph, 2 m/s, from 290°
Visibility:6.21 statute miles
2200(FEW) A few
No significant weather changes expected within 2 hours.
LFPG 200900Z 29004KT 240V330 9999 FEW022 17/11 Q1026 NOSIG
VFR 08:30:00 20-08-17
Altimeter:30.30 hg
Temp:16.0°c 61°f
Dew point:12.0°c 54°f
Wind:5 knots, 5.8 mph, 3 m/s, from 280°
Visibility:6.21 statute miles
4300(FEW) A few
No significant weather changes expected within 2 hours.
LFPG 200830Z 28005KT 240V310 9999 FEW043 16/12 Q1026 NOSIG
TAF
TAF LFPG 201100Z 2012/2118 29005KT CAVOK BECMG 2103/2105 BKN040 TX25/2115Z TN15/2105Z
Forecast at LFPG
12:00 20-08-17 to 03:00 21-08-17
NSW
Wind:5 Knots from 290°
Visibility:6.21 statute miles
NSC
BECMG 03:00 21-08-17 to 18:00 21-08-17
NSW
Wind:5 Knots from 290°
Visibility:6.21 statute miles
4000BKN Broken